YYZ weather

Lester B. Pearson International Airport
Toronto, Ontario, Canada

Public forecast

Using degrees Celsius for public forecast. Weather courtesy of forecast.io.

METAR (pilot weather report)

Retrieved 2018/08/18 07:00 UTC (15 minutes ago):

CYYZ 180700Z 06006KT 15SM -RA SCT090 OVC120 21/19 A2991 RMK AC3AC5 SLP128 DENSITY ALT 1500FT

TAF (pilot weather forecast)

Retrieved 2018/08/18 06:39 UTC (36 minutes ago):

TAF CYYZ 180538Z 1806/1912 03005KT P6SM FEW020 BKN050 TEMPO 1806/1807 P6SM -SHRA BKN020 OVC050 FM180700 03008KT P6SM FEW008 BKN020 OVC040 TEMPO 1807/1812 SCT020 BKN040 FM181200 02012KT P6SM FEW020 BKN070 FM181600 03012KT P6SM FEW020 SCT040 FM181800 04008KT P6SM BKN040 BECMG 1818/1820 12007KT BECMG 1900/1902 VRB03KT FM191000 04005KT P6SM FEW030 RMK NXT FCST BY 180900Z